sensor_id;sensor_type;location;lat;lon;timestamp;noise_LAeq;noise_LA_min;noise_LA_max;noise_LA01;noise_LA95
64545;Laerm;50936;51.660;5.616;2023-11-21T00:00:07;38.45;33.90;43.09;;
64545;Laerm;50936;51.660;5.616;2023-11-21T00:02:58;37.40;31.68;40.89;;
64545;Laerm;50936;51.660;5.616;2023-11-21T00:05:46;37.09;29.92;40.33;;
64545;Laerm;50936;51.660;5.616;2023-11-21T00:08:33;37.07;28.67;40.43;;
64545;Laerm;50936;51.660;5.616;2023-11-21T00:11:20;37.12;32.35;40.71;;
64545;Laerm;50936;51.660;5.616;2023-11-21T00:14:08;37.26;31.68;40.89;;
64545;Laerm;50936;51.660;5.616;2023-11-21T00:16:55;37.80;31.68;42.29;;
64545;Laerm;50936;51.660;5.616;2023-11-21T00:19:42;37.17;31.68;40.71;;
64545;Laerm;50936;51.660;5.616;2023-11-21T00:22:30;37.28;32.35;41.68;;
64545;Laerm;50936;51.660;5.616;2023-11-21T00:25:17;37.29;32.35;41.53;;
64545;Laerm;50936;51.660;5.616;2023-11-21T00:28:04;37.04;29.92;40.03;;
64545;Laerm;50936;51.660;5.616;2023-11-21T00:30:53;37.04;31.68;40.89;;
64545;Laerm;50936;51.660;5.616;2023-11-21T00:33:40;37.10;29.92;40.23;;
64545;Laerm;50936;51.660;5.616;2023-11-21T00:36:28;37.20;31.68;40.03;;
64545;Laerm;50936;51.660;5.616;2023-11-21T00:39:15;36.98;30.89;40.03;;
64545;Laerm;50936;51.660;5.616;2023-11-21T00:42:02;37.15;29.92;41.22;;
64545;Laerm;50936;51.660;5.616;2023-11-21T00:44:51;37.58;32.35;44.58;;
64545;Laerm;50936;51.660;5.616;2023-11-21T00:47:38;38.18;33.44;41.26;;
64545;Laerm;50936;51.660;5.616;2023-11-21T00:50:26;38.29;33.44;42.35;;
64545;Laerm;50936;51.660;5.616;2023-11-21T00:53:16;38.21;33.44;41.22;;
64545;Laerm;50936;51.660;5.616;2023-11-21T00:56:04;38.32;32.35;42.76;;
64545;Laerm;50936;51.660;5.616;2023-11-21T00:58:52;38.36;33.44;41.14;;
64545;Laerm;50936;51.660;5.616;2023-11-21T01:01:39;38.34;33.90;42.03;;
64545;Laerm;50936;51.660;5.616;2023-11-21T01:04:27;37.80;32.35;56.75;;
64545;Laerm;50936;51.660;5.616;2023-11-21T01:07:14;37.10;28.67;42.03;;
64545;Laerm;50936;51.660;5.616;2023-11-21T01:10:03;37.04;30.89;40.43;;
64545;Laerm;50936;51.660;5.616;2023-11-21T01:12:54;37.05;30.89;42.47;;
64545;Laerm;50936;51.660;5.616;2023-11-21T01:15:41;37.00;30.89;40.03;;
64545;Laerm;50936;51.660;5.616;2023-11-21T01:18:28;37.38;32.35;41.75;;
64545;Laerm;50936;51.660;5.616;2023-11-21T01:21:16;37.08;29.92;39.81;;
64545;Laerm;50936;51.660;5.616;2023-11-21T01:24:04;37.41;32.35;42.19;;
64545;Laerm;50936;51.660;5.616;2023-11-21T01:26:54;37.09;32.35;40.03;;
64545;Laerm;50936;51.660;5.616;2023-11-21T01:29:41;37.27;30.89;41.96;;
64545;Laerm;50936;51.660;5.616;2023-11-21T01:32:28;37.06;30.89;40.62;;
64545;Laerm;50936;51.660;5.616;2023-11-21T01:35:16;38.27;33.90;40.89;;
64545;Laerm;50936;51.660;5.616;2023-11-21T01:38:03;38.23;33.55;41.81;;
64545;Laerm;50936;51.660;5.616;2023-11-21T01:40:51;38.12;33.90;41.14;;
64545;Laerm;50936;51.660;5.616;2023-11-21T01:43:38;38.13;32.93;41.68;;
64545;Laerm;50936;51.660;5.616;2023-11-21T01:46:26;39.39;33.44;68.92;;
64545;Laerm;50936;51.660;5.616;2023-11-21T01:49:13;38.26;32.93;41.53;;
64545;Laerm;50936;51.660;5.616;2023-11-21T01:52:03;38.25;33.44;41.22;;
64545;Laerm;50936;51.660;5.616;2023-11-21T01:54:52;38.38;34.31;40.89;;
64545;Laerm;50936;51.660;5.616;2023-11-21T01:57:40;38.59;33.44;41.46;;
64545;Laerm;50936;51.660;5.616;2023-11-21T02:00:28;37.98;32.93;42.41;;
64545;Laerm;50936;51.660;5.616;2023-11-21T02:03:16;37.00;32.35;40.03;;
64545;Laerm;50936;51.660;5.616;2023-11-21T02:06:05;36.98;29.92;40.23;;
64545;Laerm;50936;51.660;5.616;2023-11-21T02:08:52;37.20;32.35;41.82;;
64545;Laerm;50936;51.660;5.616;2023-11-21T02:11:40;36.98;31.68;40.23;;
64545;Laerm;50936;51.660;5.616;2023-11-21T02:14:28;37.06;31.68;40.03;;
64545;Laerm;50936;51.660;5.616;2023-11-21T02:17:16;37.12;30.89;40.13;;
64545;Laerm;50936;51.660;5.616;2023-11-21T02:20:05;37.10;31.68;41.61;;
64545;Laerm;50936;51.660;5.616;2023-11-21T02:22:56;37.14;29.92;41.75;;
64545;Laerm;50936;51.660;5.616;2023-11-21T02:25:47;37.01;30.89;40.62;;
64545;Laerm;50936;51.660;5.616;2023-11-21T02:28:36;37.12;32.35;41.46;;
64545;Laerm;50936;51.660;5.616;2023-11-21T02:31:25;37.25;32.35;41.46;;
64545;Laerm;50936;51.660;5.616;2023-11-21T02:34:15;36.99;31.33;40.33;;
64545;Laerm;50936;51.660;5.616;2023-11-21T02:37:03;37.00;30.89;40.13;;
64545;Laerm;50936;51.660;5.616;2023-11-21T02:39:52;37.02;30.89;41.53;;
64545;Laerm;50936;51.660;5.616;2023-11-21T02:42:39;37.01;30.89;40.33;;
64545;Laerm;50936;51.660;5.616;2023-11-21T02:45:27;37.09;30.89;40.62;;
64545;Laerm;50936;51.660;5.616;2023-11-21T02:48:14;37.01;30.89;40.33;;
64545;Laerm;50936;51.660;5.616;2023-11-21T02:51:01;37.00;32.35;40.13;;
64545;Laerm;50936;51.660;5.616;2023-11-21T02:53:49;37.02;32.35;40.13;;
64545;Laerm;50936;51.660;5.616;2023-11-21T02:56:38;36.98;30.89;39.70;;
64545;Laerm;50936;51.660;5.616;2023-11-21T02:59:26;37.59;31.68;44.27;;
64545;Laerm;50936;51.660;5.616;2023-11-21T03:02:14;38.21;33.90;42.59;;
64545;Laerm;50936;51.660;5.616;2023-11-21T03:05:03;38.26;33.90;42.76;;
64545;Laerm;50936;51.660;5.616;2023-11-21T03:07:52;38.38;32.93;41.89;;
64545;Laerm;50936;51.660;5.616;2023-11-21T03:10:39;38.34;32.93;41.14;;
64545;Laerm;50936;51.660;5.616;2023-11-21T03:13:26;38.33;33.44;40.98;;
64545;Laerm;50936;51.660;5.616;2023-11-21T03:16:16;38.44;34.69;41.68;;
64545;Laerm;50936;51.660;5.616;2023-11-21T03:19:04;37.79;32.35;40.80;;
64545;Laerm;50936;51.660;5.616;2023-11-21T03:21:52;37.99;32.35;41.94;;
64545;Laerm;50936;51.660;5.616;2023-11-21T03:24:43;38.46;33.90;41.89;;
64545;Laerm;50936;51.660;5.616;2023-11-21T03:27:30;38.34;34.31;43.29;;
64545;Laerm;50936;51.660;5.616;2023-11-21T03:30:17;38.47;34.31;42.59;;
64545;Laerm;50936;51.660;5.616;2023-11-21T03:33:04;38.73;33.90;43.04;;
64545;Laerm;50936;51.660;5.616;2023-11-21T03:35:51;38.80;35.04;42.65;;
64545;Laerm;50936;51.660;5.616;2023-11-21T03:38:41;38.55;33.90;42.35;;
64545;Laerm;50936;51.660;5.616;2023-11-21T03:41:28;37.34;31.68;41.38;;
64545;Laerm;50936;51.660;5.616;2023-11-21T03:44:15;37.11;32.93;39.81;;
64545;Laerm;50936;51.660;5.616;2023-11-21T03:47:03;37.22;32.35;40.53;;
64545;Laerm;50936;51.660;5.616;2023-11-21T03:49:50;37.36;32.35;40.89;;
64545;Laerm;50936;51.660;5.616;2023-11-21T03:52:37;37.35;30.89;40.53;;
64545;Laerm;50936;51.660;5.616;2023-11-21T03:55:25;37.42;31.68;44.11;;
64545;Laerm;50936;51.660;5.616;2023-11-21T03:58:12;37.20;32.35;41.53;;
64545;Laerm;50936;51.660;5.616;2023-11-21T04:01:00;37.42;30.89;44.15;;
64545;Laerm;50936;51.660;5.616;2023-11-21T04:03:50;37.41;32.35;42.35;;
64545;Laerm;50936;51.660;5.616;2023-11-21T04:06:37;37.36;32.35;41.53;;
64545;Laerm;50936;51.660;5.616;2023-11-21T04:09:25;37.29;29.92;41.22;;
64545;Laerm;50936;51.660;5.616;2023-11-21T04:12:12;37.28;31.68;40.33;;
64545;Laerm;50936;51.660;5.616;2023-11-21T04:14:59;37.65;32.35;41.61;;
64545;Laerm;50936;51.660;5.616;2023-11-21T04:17:46;37.38;32.35;42.41;;
64545;Laerm;50936;51.660;5.616;2023-11-21T04:20:33;37.83;30.89;43.63;;
64545;Laerm;50936;51.660;5.616;2023-11-21T04:23:20;37.39;31.68;42.93;;
64545;Laerm;50936;51.660;5.616;2023-11-21T04:26:08;37.90;31.68;44.47;;
64545;Laerm;50936;51.660;5.616;2023-11-21T04:28:55;38.42;32.93;43.77;;
64545;Laerm;50936;51.660;5.616;2023-11-21T04:31:42;38.52;34.69;41.46;;
64545;Laerm;50936;51.660;5.616;2023-11-21T04:34:30;38.56;32.93;42.41;;
64545;Laerm;50936;51.660;5.616;2023-11-21T04:37:17;39.05;33.90;43.09;;
64545;Laerm;50936;51.660;5.616;2023-11-21T04:40:05;38.73;34.69;42.41;;
64545;Laerm;50936;51.660;5.616;2023-11-21T04:42:54;38.52;33.90;41.82;;
64545;Laerm;50936;51.660;5.616;2023-11-21T04:45:41;37.86;32.35;41.30;;
64545;Laerm;50936;51.660;5.616;2023-11-21T04:48:28;37.91;32.93;41.82;;
64545;Laerm;50936;51.660;5.616;2023-11-21T04:51:16;38.58;32.35;44.11;;
64545;Laerm;50936;51.660;5.616;2023-11-21T04:54:03;37.63;31.68;40.71;;
64545;Laerm;50936;51.660;5.616;2023-11-21T04:56:52;37.70;31.68;41.22;;
64545;Laerm;50936;51.660;5.616;2023-11-21T04:59:40;37.51;32.93;52.40;;
64545;Laerm;50936;51.660;5.616;2023-11-21T05:02:27;38.05;32.35;42.98;;
64545;Laerm;50936;51.660;5.616;2023-11-21T05:05:21;37.63;33.44;40.62;;
64545;Laerm;50936;51.660;5.616;2023-11-21T05:08:09;37.84;32.93;44.23;;
64545;Laerm;50936;51.660;5.616;2023-11-21T05:10:57;38.15;32.35;43.58;;
64545;Laerm;50936;51.660;5.616;2023-11-21T05:13:44;38.17;32.35;41.75;;
64545;Laerm;50936;51.660;5.616;2023-11-21T05:16:31;38.37;34.31;42.41;;
64545;Laerm;50936;51.660;5.616;2023-11-21T05:19:18;38.80;34.69;42.35;;
64545;Laerm;50936;51.660;5.616;2023-11-21T05:22:06;38.80;33.90;43.90;;
64545;Laerm;50936;51.660;5.616;2023-11-21T05:24:53;38.95;35.01;42.47;;
64545;Laerm;50936;51.660;5.616;2023-11-21T05:27:40;39.70;34.69;44.80;;
64545;Laerm;50936;51.660;5.616;2023-11-21T05:30:27;39.14;35.66;43.34;;
64545;Laerm;50936;51.660;5.616;2023-11-21T05:33:15;38.95;35.36;43.99;;
64545;Laerm;50936;51.660;5.616;2023-11-21T05:36:02;39.20;34.69;43.04;;
64545;Laerm;50936;51.660;5.616;2023-11-21T05:38:49;39.06;33.90;42.13;;
64545;Laerm;50936;51.660;5.616;2023-11-21T05:41:37;39.38;35.36;43.39;;
64545;Laerm;50936;51.660;5.616;2023-11-21T05:44:24;39.52;35.36;43.99;;
64545;Laerm;50936;51.660;5.616;2023-11-21T05:47:12;38.72;32.35;59.35;;
64545;Laerm;50936;51.660;5.616;2023-11-21T05:50:00;38.43;33.44;42.59;;
64545;Laerm;50936;51.660;5.616;2023-11-21T05:52:48;38.18;32.35;43.29;;
64545;Laerm;50936;51.660;5.616;2023-11-21T05:55:35;39.75;35.36;45.75;;
64545;Laerm;50936;51.660;5.616;2023-11-21T05:58:23;38.88;33.44;43.34;;
64545;Laerm;50936;51.660;5.616;2023-11-21T06:01:10;38.62;34.31;43.77;;
64545;Laerm;50936;51.660;5.616;2023-11-21T06:03:59;47.37;35.04;69.78;;
64545;Laerm;50936;51.660;5.616;2023-11-21T06:06:48;48.51;35.36;71.50;;
64545;Laerm;50936;51.660;5.616;2023-11-21T06:09:37;45.59;34.69;67.77;;
64545;Laerm;50936;51.660;5.616;2023-11-21T06:12:24;47.39;36.20;69.31;;
64545;Laerm;50936;51.660;5.616;2023-11-21T06:15:12;43.44;34.69;68.16;;
64545;Laerm;50936;51.660;5.616;2023-11-21T06:18:03;44.89;34.31;69.51;;
64545;Laerm;50936;51.660;5.616;2023-11-21T06:20:50;44.58;35.94;69.92;;
64545;Laerm;50936;51.660;5.616;2023-11-21T06:23:40;45.63;41.14;67.09;;
64545;Laerm;50936;51.660;5.616;2023-11-21T06:26:28;44.70;41.75;66.20;;
64545;Laerm;50936;51.660;5.616;2023-11-21T06:29:15;44.11;35.04;64.01;;
64545;Laerm;50936;51.660;5.616;2023-11-21T06:32:03;41.15;33.44;60.47;;
64545;Laerm;50936;51.660;5.616;2023-11-21T06:34:52;41.53;34.31;58.79;;
64545;Laerm;50936;51.660;5.616;2023-11-21T06:37:41;40.80;35.04;55.26;;
64545;Laerm;50936;51.660;5.616;2023-11-21T06:40:29;43.68;34.69;70.18;;
64545;Laerm;50936;51.660;5.616;2023-11-21T06:43:16;39.13;33.90;44.27;;
64545;Laerm;50936;51.660;5.616;2023-11-21T06:46:05;39.26;35.66;45.99;;
64545;Laerm;50936;51.660;5.616;2023-11-21T06:48:52;39.75;36.45;44.51;;
64545;Laerm;50936;51.660;5.616;2023-11-21T06:51:39;39.77;35.36;44.39;;
64545;Laerm;50936;51.660;5.616;2023-11-21T06:54:26;39.78;34.69;43.24;;
64545;Laerm;50936;51.660;5.616;2023-11-21T06:57:13;40.36;35.04;61.66;;
64545;Laerm;50936;51.660;5.616;2023-11-21T07:00:01;48.48;35.36;73.88;;
64545;Laerm;50936;51.660;5.616;2023-11-21T07:02:51;49.55;35.94;70.87;;
64545;Laerm;50936;51.660;5.616;2023-11-21T07:05:38;53.75;39.08;75.11;;
64545;Laerm;50936;51.660;5.616;2023-11-21T07:08:26;55.35;37.52;71.30;;
64545;Laerm;50936;51.660;5.616;2023-11-21T07:11:13;53.34;37.52;71.09;;
64545;Laerm;50936;51.660;5.616;2023-11-21T07:14:00;53.62;38.52;68.76;;
64545;Laerm;50936;51.660;5.616;2023-11-21T07:16:54;54.03;37.70;73.73;;
64545;Laerm;50936;51.660;5.616;2023-11-21T07:19:41;54.35;37.12;68.13;;
64545;Laerm;50936;51.660;5.616;2023-11-21T07:22:28;55.19;37.88;81.41;;
64545;Laerm;50936;51.660;5.616;2023-11-21T07:25:16;53.08;37.88;67.47;;
64545;Laerm;50936;51.660;5.616;2023-11-21T07:28:03;56.59;38.05;74.00;;
64545;Laerm;50936;51.660;5.616;2023-11-21T07:30:52;58.58;38.05;77.44;;
64545;Laerm;50936;51.660;5.616;2023-11-21T07:33:39;53.17;37.70;69.88;;
64545;Laerm;50936;51.660;5.616;2023-11-21T07:36:27;55.20;37.12;71.70;;
64545;Laerm;50936;51.660;5.616;2023-11-21T07:39:14;52.24;37.32;68.70;;
64545;Laerm;50936;51.660;5.616;2023-11-21T07:42:03;54.21;38.21;72.54;;
64545;Laerm;50936;51.660;5.616;2023-11-21T07:44:51;50.12;37.52;66.00;;
64545;Laerm;50936;51.660;5.616;2023-11-21T07:47:39;50.12;37.70;62.56;;
64545;Laerm;50936;51.660;5.616;2023-11-21T07:50:26;49.68;37.12;61.41;;
64545;Laerm;50936;51.660;5.616;2023-11-21T07:53:14;50.10;37.52;61.62;;
64545;Laerm;50936;51.660;5.616;2023-11-21T07:56:09;50.00;36.91;62.64;;
64545;Laerm;50936;51.660;5.616;2023-11-21T07:58:56;53.16;37.88;75.59;;
64545;Laerm;50936;51.660;5.616;2023-11-21T08:01:43;54.66;38.05;72.75;;
64545;Laerm;50936;51.660;5.616;2023-11-21T08:04:33;54.59;37.52;76.82;;
64545;Laerm;50936;51.660;5.616;2023-11-21T08:07:21;54.83;37.88;74.31;;
64545;Laerm;50936;51.660;5.616;2023-11-21T08:10:09;59.25;37.70;80.46;;
64545;Laerm;50936;51.660;5.616;2023-11-21T08:12:57;47.48;36.20;69.94;;
64545;Laerm;50936;51.660;5.616;2023-11-21T08:15:45;45.27;36.91;71.68;;
64545;Laerm;50936;51.660;5.616;2023-11-21T08:18:33;48.86;35.86;69.31;;
64545;Laerm;50936;51.660;5.616;2023-11-21T08:21:21;48.64;36.69;67.67;;
64545;Laerm;50936;51.660;5.616;2023-11-21T08:24:10;49.41;36.20;78.05;;
64545;Laerm;50936;51.660;5.616;2023-11-21T08:26:58;40.90;35.36;59.95;;
64545;Laerm;50936;51.660;5.616;2023-11-21T08:29:45;60.30;35.36;84.12;;
64545;Laerm;50936;51.660;5.616;2023-11-21T08:32:33;59.08;36.20;78.64;;
64545;Laerm;50936;51.660;5.616;2023-11-21T08:35:20;44.73;35.36;64.50;;
64545;Laerm;50936;51.660;5.616;2023-11-21T08:38:07;50.88;36.10;71.26;;
64545;Laerm;50936;51.660;5.616;2023-11-21T08:40:56;39.41;35.04;45.07;;
64545;Laerm;50936;51.660;5.616;2023-11-21T08:43:44;41.48;36.20;62.03;;
64545;Laerm;50936;51.660;5.616;2023-11-21T08:46:32;41.36;37.32;55.95;;
64545;Laerm;50936;51.660;5.616;2023-11-21T08:49:20;46.99;37.52;73.22;;
64545;Laerm;50936;51.660;5.616;2023-11-21T08:52:08;41.56;37.70;52.13;;
64545;Laerm;50936;51.660;5.616;2023-11-21T08:54:55;41.15;36.45;55.55;;
64545;Laerm;50936;51.660;5.616;2023-11-21T08:57:49;41.03;36.45;51.33;;
64545;Laerm;50936;51.660;5.616;2023-11-21T09:00:39;40.76;35.94;57.53;;
64545;Laerm;50936;51.660;5.616;2023-11-21T09:03:27;40.04;36.20;49.62;;
64545;Laerm;50936;51.660;5.616;2023-11-21T09:06:15;39.63;35.66;48.28;;
64545;Laerm;50936;51.660;5.616;2023-11-21T09:09:02;40.57;35.66;54.83;;
64545;Laerm;50936;51.660;5.616;2023-11-21T09:11:52;42.98;36.45;62.68;;
64545;Laerm;50936;51.660;5.616;2023-11-21T09:14:40;41.74;36.45;65.19;;
64545;Laerm;50936;51.660;5.616;2023-11-21T09:17:27;40.27;35.66;50.72;;
64545;Laerm;50936;51.660;5.616;2023-11-21T09:20:14;40.06;35.36;49.02;;
64545;Laerm;50936;51.660;5.616;2023-11-21T09:23:02;39.35;35.36;47.67;;
64545;Laerm;50936;51.660;5.616;2023-11-21T09:25:49;40.03;35.04;51.78;;
64545;Laerm;50936;51.660;5.616;2023-11-21T09:28:38;46.24;35.01;71.31;;
64545;Laerm;50936;51.660;5.616;2023-11-21T09:31:26;44.94;34.34;73.12;;
64545;Laerm;50936;51.660;5.616;2023-11-21T09:34:14;54.30;35.36;76.84;;
64545;Laerm;50936;51.660;5.616;2023-11-21T09:37:05;56.59;37.12;80.97;;
64545;Laerm;50936;51.660;5.616;2023-11-21T09:39:53;57.24;36.20;80.07;;
64545;Laerm;50936;51.660;5.616;2023-11-21T09:45:36;51.25;39.21;73.29;;
64545;Laerm;50936;51.660;5.616;2023-11-21T09:48:26;49.31;38.21;72.57;;
64545;Laerm;50936;51.660;5.616;2023-11-21T09:51:14;45.17;38.37;65.80;;
64545;Laerm;50936;51.660;5.616;2023-11-21T09:54:03;44.34;38.21;67.90;;
64545;Laerm;50936;51.660;5.616;2023-11-21T09:56:56;47.15;37.70;69.23;;
64545;Laerm;50936;51.660;5.616;2023-11-21T09:59:46;47.11;38.05;75.05;;
64545;Laerm;50936;51.660;5.616;2023-11-21T10:02:39;44.15;37.52;54.68;;
64545;Laerm;50936;51.660;5.616;2023-11-21T10:05:28;47.70;37.52;75.35;;
64545;Laerm;50936;51.660;5.616;2023-11-21T10:08:15;61.08;38.81;83.46;;
64545;Laerm;50936;51.660;5.616;2023-11-21T10:11:05;55.09;38.81;72.47;;
64545;Laerm;50936;51.660;5.616;2023-11-21T10:13:54;53.03;38.37;73.87;;
64545;Laerm;50936;51.660;5.616;2023-11-21T10:16:47;61.53;38.52;76.99;;
64545;Laerm;50936;51.660;5.616;2023-11-21T10:19:36;62.33;39.34;79.36;;
64545;Laerm;50936;51.660;5.616;2023-11-21T10:22:24;61.24;40.13;80.72;;
64545;Laerm;50936;51.660;5.616;2023-11-21T10:25:13;48.91;39.21;69.91;;
64545;Laerm;50936;51.660;5.616;2023-11-21T10:28:05;58.62;38.67;78.56;;
64545;Laerm;50936;51.660;5.616;2023-11-21T10:30:52;61.01;36.91;82.35;;
64545;Laerm;50936;51.660;5.616;2023-11-21T10:33:40;55.41;38.81;75.65;;
64545;Laerm;50936;51.660;5.616;2023-11-21T10:36:28;43.77;39.81;52.33;;
64545;Laerm;50936;51.660;5.616;2023-11-21T10:39:21;43.79;38.52;59.69;;
64545;Laerm;50936;51.660;5.616;2023-11-21T10:42:11;55.63;39.34;73.26;;
64545;Laerm;50936;51.660;5.616;2023-11-21T10:44:58;53.41;38.52;80.08;;
64545;Laerm;50936;51.660;5.616;2023-11-21T10:47:45;48.86;38.67;71.44;;
64545;Laerm;50936;51.660;5.616;2023-11-21T10:50:34;48.09;42.98;75.16;;
64545;Laerm;50936;51.660;5.616;2023-11-21T10:53:22;46.02;40.53;63.00;;
64545;Laerm;50936;51.660;5.616;2023-11-21T10:56:14;45.04;41.82;52.57;;
64545;Laerm;50936;51.660;5.616;2023-11-21T10:59:15;47.65;42.76;66.72;;
64545;Laerm;50936;51.660;5.616;2023-11-21T11:02:21;46.21;42.29;66.09;;
64545;Laerm;50936;51.660;5.616;2023-11-21T11:05:14;49.40;41.61;70.78;;
64545;Laerm;50936;51.660;5.616;2023-11-21T11:08:11;53.39;39.46;72.01;;
64545;Laerm;50936;51.660;5.616;2023-11-21T11:10:59;47.41;38.67;65.34;;
64545;Laerm;50936;51.660;5.616;2023-11-21T11:13:46;49.05;38.05;70.77;;
64545;Laerm;50936;51.660;5.616;2023-11-21T11:16:34;52.14;38.67;78.16;;
64545;Laerm;50936;51.660;5.616;2023-11-21T11:19:21;55.01;39.34;78.85;;
64545;Laerm;50936;51.660;5.616;2023-11-21T11:22:33;49.23;39.08;69.17;;
64545;Laerm;50936;51.660;5.616;2023-11-21T11:35:11;59.76;38.67;83.71;;
64545;Laerm;50936;51.660;5.616;2023-11-21T11:38:04;57.75;38.81;78.77;;
64545;Laerm;50936;51.660;5.616;2023-11-21T11:40:54;63.52;38.60;92.76;;
64545;Laerm;50936;51.660;5.616;2023-11-21T11:43:41;58.17;38.52;83.65;;
64545;Laerm;50936;51.660;5.616;2023-11-21T11:46:42;64.66;38.52;86.27;;
64545;Laerm;50936;51.660;5.616;2023-11-21T11:49:32;57.33;39.58;82.51;;
64545;Laerm;50936;51.660;5.616;2023-11-21T11:55:29;44.16;39.35;56.55;;
64545;Laerm;50936;51.660;5.616;2023-11-21T11:58:17;44.02;38.37;52.01;;
64545;Laerm;50936;51.660;5.616;2023-11-21T12:01:06;44.21;35.94;52.30;;
64545;Laerm;50936;51.660;5.616;2023-11-21T12:07:00;50.19;36.91;71.42;;
64545;Laerm;50936;51.660;5.616;2023-11-21T12:09:50;43.65;39.08;50.78;;
64545;Laerm;50936;51.660;5.616;2023-11-21T12:12:37;46.32;39.34;67.67;;
64545;Laerm;50936;51.660;5.616;2023-11-21T12:15:25;58.15;38.52;80.29;;
64545;Laerm;50936;51.660;5.616;2023-11-21T12:18:16;51.98;38.95;68.25;;
64545;Laerm;50936;51.660;5.616;2023-11-21T12:21:03;52.10;38.21;68.69;;
64545;Laerm;50936;51.660;5.616;2023-11-21T12:23:51;56.00;38.05;74.19;;
64545;Laerm;50936;51.660;5.616;2023-11-21T12:26:38;53.95;37.88;73.47;;
64545;Laerm;50936;51.660;5.616;2023-11-21T12:29:25;48.45;38.05;80.56;;
64545;Laerm;50936;51.660;5.616;2023-11-21T12:32:12;53.48;38.05;73.12;;
64545;Laerm;50936;51.660;5.616;2023-11-21T12:35:03;44.31;38.52;59.36;;
64545;Laerm;50936;51.660;5.616;2023-11-21T12:37:55;43.78;36.91;53.84;;
64545;Laerm;50936;51.660;5.616;2023-11-21T12:40:44;43.57;38.95;60.34;;
64545;Laerm;50936;51.660;5.616;2023-11-21T12:43:33;43.29;39.08;56.20;;
64545;Laerm;50936;51.660;5.616;2023-11-21T12:46:22;43.38;37.88;51.80;;
64545;Laerm;50936;51.660;5.616;2023-11-21T12:49:11;43.11;38.21;51.28;;
64545;Laerm;50936;51.660;5.616;2023-11-21T12:52:05;43.27;37.70;48.66;;
64545;Laerm;50936;51.660;5.616;2023-11-21T12:54:53;55.42;39.08;82.15;;
64545;Laerm;50936;51.660;5.616;2023-11-21T12:57:43;52.64;39.58;66.24;;
64545;Laerm;50936;51.660;5.616;2023-11-21T13:00:34;53.07;39.46;68.71;;
64545;Laerm;50936;51.660;5.616;2023-11-21T13:03:25;53.28;39.92;69.71;;
64545;Laerm;50936;51.660;5.616;2023-11-21T13:06:15;53.91;39.08;78.36;;
64545;Laerm;50936;51.660;5.616;2023-11-21T13:09:03;53.42;38.18;69.15;;
64545;Laerm;50936;51.660;5.616;2023-11-21T13:12:00;53.06;38.67;71.10;;
64545;Laerm;50936;51.660;5.616;2023-11-21T13:14:50;66.58;37.32;99.15;;
64545;Laerm;50936;51.660;5.616;2023-11-21T13:17:38;59.86;36.45;76.44;;
64545;Laerm;50936;51.660;5.616;2023-11-21T13:20:27;58.12;37.52;78.14;;
64545;Laerm;50936;51.660;5.616;2023-11-21T13:23:15;47.54;35.94;71.91;;
64545;Laerm;50936;51.660;5.616;2023-11-21T13:26:04;40.07;35.36;46.64;;
64545;Laerm;50936;51.660;5.616;2023-11-21T13:28:53;40.78;36.45;60.96;;
64545;Laerm;50936;51.660;5.616;2023-11-21T13:31:40;40.36;36.20;54.06;;
64545;Laerm;50936;51.660;5.616;2023-11-21T13:34:29;40.91;37.12;58.49;;
64545;Laerm;50936;51.660;5.616;2023-11-21T13:37:20;40.36;35.94;54.26;;
64545;Laerm;50936;51.660;5.616;2023-11-21T13:40:08;42.75;36.20;68.46;;
64545;Laerm;50936;51.660;5.616;2023-11-21T13:43:01;45.24;37.32;78.58;;
64545;Laerm;50936;51.660;5.616;2023-11-21T13:45:53;48.44;36.45;72.63;;
64545;Laerm;50936;51.660;5.616;2023-11-21T13:48:57;55.13;36.69;79.88;;
64545;Laerm;50936;51.660;5.616;2023-11-21T13:51:44;56.32;36.69;78.50;;
64545;Laerm;50936;51.660;5.616;2023-11-21T13:54:35;50.46;36.45;73.77;;
64545;Laerm;50936;51.660;5.616;2023-11-21T13:57:22;47.22;36.91;69.76;;
64545;Laerm;50936;51.660;5.616;2023-11-21T14:00:10;50.49;36.69;74.51;;
64545;Laerm;50936;51.660;5.616;2023-11-21T14:03:13;60.56;37.70;79.41;;
64545;Laerm;50936;51.660;5.616;2023-11-21T14:06:06;58.16;36.69;72.74;;
64545;Laerm;50936;51.660;5.616;2023-11-21T14:09:07;59.02;38.21;72.92;;
64545;Laerm;50936;51.660;5.616;2023-11-21T14:11:56;59.62;38.05;75.48;;
64545;Laerm;50936;51.660;5.616;2023-11-21T14:14:44;61.97;37.12;77.60;;
64545;Laerm;50936;51.660;5.616;2023-11-21T14:17:32;62.50;37.52;79.97;;
64545;Laerm;50936;51.660;5.616;2023-11-21T14:20:21;63.99;37.88;78.49;;
64545;Laerm;50936;51.660;5.616;2023-11-21T14:23:10;63.68;37.32;85.23;;
64545;Laerm;50936;51.660;5.616;2023-11-21T14:25:58;61.61;37.88;78.86;;
64545;Laerm;50936;51.660;5.616;2023-11-21T14:28:48;61.47;37.32;77.77;;
64545;Laerm;50936;51.660;5.616;2023-11-21T14:31:36;61.10;38.21;74.96;;
64545;Laerm;50936;51.660;5.616;2023-11-21T14:34:24;60.43;36.20;75.80;;
64545;Laerm;50936;51.660;5.616;2023-11-21T14:37:11;58.22;37.32;76.33;;
64545;Laerm;50936;51.660;5.616;2023-11-21T14:40:00;61.29;38.52;75.84;;
64545;Laerm;50936;51.660;5.616;2023-11-21T14:42:48;61.34;38.21;76.58;;
64545;Laerm;50936;51.660;5.616;2023-11-21T14:45:35;63.00;38.37;79.77;;
64545;Laerm;50936;51.660;5.616;2023-11-21T14:48:22;63.04;37.70;77.29;;
64545;Laerm;50936;51.660;5.616;2023-11-21T14:51:28;61.13;35.94;74.22;;
64545;Laerm;50936;51.660;5.616;2023-11-21T14:54:18;62.78;37.12;77.83;;
64545;Laerm;50936;51.660;5.616;2023-11-21T14:57:18;63.00;37.70;77.16;;
64545;Laerm;50936;51.660;5.616;2023-11-21T15:00:08;61.79;37.32;75.18;;
64545;Laerm;50936;51.660;5.616;2023-11-21T15:03:15;61.20;37.32;78.05;;
64545;Laerm;50936;51.660;5.616;2023-11-21T15:06:25;61.02;36.98;75.68;;
64545;Laerm;50936;51.660;5.616;2023-11-21T15:09:17;62.53;37.70;77.53;;
64545;Laerm;50936;51.660;5.616;2023-11-21T15:12:21;61.51;37.70;76.45;;
64545;Laerm;50936;51.660;5.616;2023-11-21T15:15:13;60.87;37.70;73.70;;
64545;Laerm;50936;51.660;5.616;2023-11-21T15:18:01;62.11;38.05;76.75;;
64545;Laerm;50936;51.660;5.616;2023-11-21T15:20:48;62.26;37.32;77.37;;
64545;Laerm;50936;51.660;5.616;2023-11-21T15:23:35;60.52;37.87;75.19;;
64545;Laerm;50936;51.660;5.616;2023-11-21T15:26:23;59.56;37.88;74.87;;
64545;Laerm;50936;51.660;5.616;2023-11-21T15:29:10;60.26;37.12;74.91;;
64545;Laerm;50936;51.660;5.616;2023-11-21T15:31:58;59.78;38.37;75.61;;
64545;Laerm;50936;51.660;5.616;2023-11-21T15:34:47;61.83;38.37;79.41;;
64545;Laerm;50936;51.660;5.616;2023-11-21T15:37:34;61.01;37.70;76.35;;
64545;Laerm;50936;51.660;5.616;2023-11-21T15:40:21;61.25;37.52;80.51;;
64545;Laerm;50936;51.660;5.616;2023-11-21T15:43:08;63.40;37.88;78.29;;
64545;Laerm;50936;51.660;5.616;2023-11-21T15:45:56;59.54;36.56;78.30;;
64545;Laerm;50936;51.660;5.616;2023-11-21T15:48:43;60.31;37.32;79.61;;
64545;Laerm;50936;51.660;5.616;2023-11-21T15:51:36;62.66;37.32;79.35;;
64545;Laerm;50936;51.660;5.616;2023-11-21T15:54:24;61.52;37.12;82.76;;
64545;Laerm;50936;51.660;5.616;2023-11-21T15:57:12;60.08;37.70;72.77;;
64545;Laerm;50936;51.660;5.616;2023-11-21T16:00:00;62.14;37.32;76.93;;
64545;Laerm;50936;51.660;5.616;2023-11-21T16:02:53;60.87;37.32;79.86;;